Wind Star — C6CA9 — position and weather

sailwx.info

Track history (hours):
 
Tides and Currents Weather Stations Pressure Air Temp Water Temp Dewpoint Dewpoint Depression Visibility Wind Speed Wind Dir Waves Ship Positions

Wind Star

Operator: Holland America Line

Last reported at 2014-Sep-01 23:34 UTC. Time now 2014-Sep-01 23:36 UTC.
Position N 37°18' E 026°55'.

Length 135 m; draft 4.1 m.

Type: Ship. MMSI: 309163000.

Date/timePositionNaut miles runAvg speedWind from/ knotsBaromVisibWave heightAir tempDewpointWater temp
2014-Sep-01 23:34N 37°18' E 026°55'1111.4
2014-Sep-01 22:33N 37°29' E 026°50'30 4.1
2014-Sep-01 15:07N 37°52' E 027°15'197 4.1
2014-Aug-30 15:06N 40°55' E 028°49'711.1
2014-Aug-30 14:31N 40°58' E 028°57'2 0.2
2014-Aug-30 04:33N 40°58' E 028°60'9 8.6
2014-Aug-30 03:33N 40°52' E 028°52'10 8.9
2014-Aug-30 02:28N 40°50' E 028°40'222 4.3
2014-Aug-27 23:23N 37°25' E 026°52'7 8.0
2014-Aug-27 22:33N 37°19' E 026°55'8 7.9
2014-Aug-27 21:33N 37°11' E 026°59'10 9.7
2014-Aug-27 20:31N 37°02' E 027°04'15 7.4
2014-Aug-27 18:26N 36°58' E 027°23'41 1.0
2014-Aug-25 23:30N 36°18' E 027°29'9 8.6
2014-Aug-25 22:27N 36°17' E 027°18'3210.6
2014-Aug-25 19:24N 36°16' E 026°38'1011.3
2014-Aug-25 18:30N 36°17' E 026°25'1111.5
2014-Aug-25 17:33N 36°19' E 026°12'1211.5
2014-Aug-25 16:32N 36°20' E 025°57'1111.4
2014-Aug-25 15:33N 36°20' E 025°43'1310.8
2014-Aug-25 14:21N 36°19' E 025°27'6 7.0
2014-Aug-25 13:33N 36°23' E 025°22'4 3.4
2014-Aug-25 12:29N 36°25' E 025°25'0 0.0
2014-Aug-25 10:10N 36°25' E 025°25'0 0.0
2014-Aug-25 09:33N 36°25' E 025°25'0 0.1
2014-Aug-25 08:25N 36°25' E 025°25'0 0.1
2014-Aug-25 07:18N 36°25' E 025°25'0 0.0
2014-Aug-25 05:16N 36°25' E 025°25'0 0.5
2014-Aug-25 04:32N 36°25' E 025°25'5 5.6
2014-Aug-25 03:33N 36°29' E 025°20'6 5.7
2014-Aug-25 02:33N 36°34' E 025°16'5 5.0
2014-Aug-25 01:33N 36°39' E 025°15'4 4.5
2014-Aug-25 00:33N 36°43' E 025°13'4 4.4
2014-Aug-24 23:33N 36°47' E 025°11'4 3.9
2014-Aug-24 22:33N 36°51' E 025°12'6 6.0
2014-Aug-24 21:33N 36°55' E 025°17'4 4.1
2014-Aug-24 20:33N 36°59' E 025°18'8 8.5
2014-Aug-24 19:33N 37°08' E 025°19'8 8.1
2014-Aug-24 18:33N 37°16' E 025°19'8 8.5
2014-Aug-24 17:33N 37°24' E 025°17'3 3.1
2014-Aug-24 16:33N 37°27' E 025°19'0 0.0
2014-Aug-24 15:33N 37°27' E 025°19'0 0.0
2014-Aug-24 14:33N 37°27' E 025°19'0 0.0
2014-Aug-24 13:33N 37°27' E 025°19'0 0.0
2014-Aug-24 12:33N 37°27' E 025°19'0 0.0
2014-Aug-24 11:33N 37°27' E 025°19'0 0.0
2014-Aug-24 10:33N 37°27' E 025°19'0 0.0
2014-Aug-24 09:33N 37°27' E 025°19'0 0.0
2014-Aug-24 08:33N 37°27' E 025°19'0 0.0
2014-Aug-24 07:33N 37°27' E 025°19'0 0.0
2014-Aug-24 06:33N 37°27' E 025°19'0 0.0
2014-Aug-24 05:33N 37°27' E 025°19'0 0.0
2014-Aug-24 04:33N 37°27' E 025°19'3 2.7
2014-Aug-24 03:33N 37°28' E 025°16'6 6.5
2014-Aug-24 02:33N 37°29' E 025°08'7 6.6
2014-Aug-24 01:33N 37°31' E 024°60'7 6.2
2014-Aug-24 00:29N 37°32' E 024°51'6 6.4
2014-Aug-23 23:33N 37°30' E 024°44'7 6.6
2014-Aug-23 22:33N 37°30' E 024°36'7 6.8
2014-Aug-23 21:33N 37°31' E 024°27'13 6.4
2014-Aug-23 19:32N 37°33' E 024°11'35 2.2
2014-Aug-23 03:33N 37°56' E 023°37'5 4.7
2014-Aug-23 02:33N 37°51' E 023°38'6 5.6
2014-Aug-23 01:33N 37°46' E 023°42'7 6.6
2014-Aug-23 00:33N 37°40' E 023°45'7 7.1
2014-Aug-22 23:33N 37°36' E 023°52'7 7.0
2014-Aug-22 22:33N 37°33' E 024°00'  
Track history (hours):
 
Tides and Currents Weather Stations Pressure Air Temp Water Temp Dewpoint Dewpoint Depression Visibility Wind Speed Wind Dir Waves Ship Positions

Wind Star

Operator: Holland America Line

Last reported at 2014-Sep-01 23:34 UTC. Time now 2014-Sep-01 23:36 UTC.
Position N 37°18' E 026°55'.

Length 135 m; draft 4.1 m.

Type: Ship. MMSI: 309163000.

Date/timePositionNaut miles runAvg speedWind from/ knotsBaromVisibWave heightAir tempDewpointWater temp
2014-Sep-01 23:34N 37°18' E 026°55'1111.4
2014-Sep-01 22:33N 37°29' E 026°50'30 4.1
2014-Sep-01 15:07N 37°52' E 027°15'197 4.1
2014-Aug-30 15:06N 40°55' E 028°49'711.1
2014-Aug-30 14:31N 40°58' E 028°57'2 0.2
2014-Aug-30 04:33N 40°58' E 028°60'9 8.6
2014-Aug-30 03:33N 40°52' E 028°52'10 8.9
2014-Aug-30 02:28N 40°50' E 028°40'222 4.3
2014-Aug-27 23:23N 37°25' E 026°52'7 8.0
2014-Aug-27 22:33N 37°19' E 026°55'8 7.9
2014-Aug-27 21:33N 37°11' E 026°59'10 9.7
2014-Aug-27 20:31N 37°02' E 027°04'15 7.4
2014-Aug-27 18:26N 36°58' E 027°23'41 1.0
2014-Aug-25 23:30N 36°18' E 027°29'9 8.6
2014-Aug-25 22:27N 36°17' E 027°18'3210.6
2014-Aug-25 19:24N 36°16' E 026°38'1011.3
2014-Aug-25 18:30N 36°17' E 026°25'1111.5
2014-Aug-25 17:33N 36°19' E 026°12'1211.5
2014-Aug-25 16:32N 36°20' E 025°57'1111.4
2014-Aug-25 15:33N 36°20' E 025°43'1310.8
2014-Aug-25 14:21N 36°19' E 025°27'6 7.0
2014-Aug-25 13:33N 36°23' E 025°22'4 3.4
2014-Aug-25 12:29N 36°25' E 025°25'0 0.0
2014-Aug-25 10:10N 36°25' E 025°25'0 0.0
2014-Aug-25 09:33N 36°25' E 025°25'0 0.1
2014-Aug-25 08:25N 36°25' E 025°25'0 0.1
2014-Aug-25 07:18N 36°25' E 025°25'0 0.0
2014-Aug-25 05:16N 36°25' E 025°25'0 0.5
2014-Aug-25 04:32N 36°25' E 025°25'5 5.6
2014-Aug-25 03:33N 36°29' E 025°20'6 5.7
2014-Aug-25 02:33N 36°34' E 025°16'5 5.0
2014-Aug-25 01:33N 36°39' E 025°15'4 4.5
2014-Aug-25 00:33N 36°43' E 025°13'4 4.4
2014-Aug-24 23:33N 36°47' E 025°11'4 3.9
2014-Aug-24 22:33N 36°51' E 025°12'6 6.0
2014-Aug-24 21:33N 36°55' E 025°17'4 4.1
2014-Aug-24 20:33N 36°59' E 025°18'8 8.5
2014-Aug-24 19:33N 37°08' E 025°19'8 8.1
2014-Aug-24 18:33N 37°16' E 025°19'8 8.5
2014-Aug-24 17:33N 37°24' E 025°17'3 3.1
2014-Aug-24 16:33N 37°27' E 025°19'0 0.0
2014-Aug-24 15:33N 37°27' E 025°19'0 0.0
2014-Aug-24 14:33N 37°27' E 025°19'0 0.0
2014-Aug-24 13:33N 37°27' E 025°19'0 0.0
2014-Aug-24 12:33N 37°27' E 025°19'0 0.0
2014-Aug-24 11:33N 37°27' E 025°19'0 0.0
2014-Aug-24 10:33N 37°27' E 025°19'0 0.0
2014-Aug-24 09:33N 37°27' E 025°19'0 0.0
2014-Aug-24 08:33N 37°27' E 025°19'0 0.0
2014-Aug-24 07:33N 37°27' E 025°19'0 0.0
2014-Aug-24 06:33N 37°27' E 025°19'0 0.0
2014-Aug-24 05:33N 37°27' E 025°19'0 0.0
2014-Aug-24 04:33N 37°27' E 025°19'3 2.7
2014-Aug-24 03:33N 37°28' E 025°16'6 6.5
2014-Aug-24 02:33N 37°29' E 025°08'7 6.6
2014-Aug-24 01:33N 37°31' E 024°60'7 6.2
2014-Aug-24 00:29N 37°32' E 024°51'6 6.4
2014-Aug-23 23:33N 37°30' E 024°44'7 6.6
2014-Aug-23 22:33N 37°30' E 024°36'7 6.8
2014-Aug-23 21:33N 37°31' E 024°27'13 6.4
2014-Aug-23 19:32N 37°33' E 024°11'35 2.2
2014-Aug-23 03:33N 37°56' E 023°37'5 4.7
2014-Aug-23 02:33N 37°51' E 023°38'6 5.6
2014-Aug-23 01:33N 37°46' E 023°42'7 6.6
2014-Aug-23 00:33N 37°40' E 023°45'7 7.1
2014-Aug-22 23:33N 37°36' E 023°52'7 7.0
2014-Aug-22 22:33N 37°33' E 024°00'  

Dump ship's entire track history